createdAt,value
2023-05-09T00:00:06.568Z,64.53
2023-05-09T00:02:34.691Z,57.17
2023-05-09T00:05:05.235Z,66.43
2023-05-09T00:07:32.996Z,64.55
2023-05-09T00:10:01.395Z,62.33
2023-05-09T00:12:28.920Z,59.80
2023-05-09T00:14:56.903Z,61.38
2023-05-09T00:17:25.100Z,58.35
2023-05-09T00:19:53.052Z,57.65
2023-05-09T00:22:21.566Z,63.22
2023-05-09T00:24:49.862Z,63.55
2023-05-09T00:27:18.775Z,63.40
2023-05-09T00:29:46.307Z,66.28
2023-05-09T00:32:13.948Z,63.25
2023-05-09T00:34:41.567Z,60.60
2023-05-09T00:37:09.259Z,60.55
2023-05-09T00:39:36.935Z,62.80
2023-05-09T00:42:04.915Z,58.17
2023-05-09T00:44:32.616Z,63.67
2023-05-09T00:47:00.345Z,59.88
2023-05-09T00:49:27.986Z,65.88
2023-05-09T00:51:56.933Z,60.90
2023-05-09T00:54:25.008Z,63.75
2023-05-09T00:56:52.710Z,64.53
2023-05-09T00:59:20.922Z,66.75
2023-05-09T01:01:48.529Z,62.30
2023-05-09T01:04:17.016Z,62.33
2023-05-09T01:07:08.555Z,62.17
2023-05-09T01:12:49.763Z,62.90
2023-05-09T01:15:39.304Z,64.50
2023-05-09T01:18:12.334Z,62.55
2023-05-09T01:20:46.553Z,61.67
2023-05-09T01:23:26.151Z,60.88
2023-05-09T01:26:06.370Z,61.58
2023-05-09T01:29:25.677Z,62.50
2023-05-09T01:31:56.611Z,64.35
2023-05-09T01:34:28.929Z,62.00
2023-05-09T01:37:00.924Z,63.35
2023-05-09T01:39:32.882Z,62.85
2023-05-09T01:42:04.546Z,59.33
2023-05-09T01:44:42.600Z,59.85
2023-05-09T01:47:12.009Z,63.85
2023-05-09T01:49:42.888Z,60.67
2023-05-09T01:52:16.702Z,64.18
2023-05-09T01:54:46.492Z,61.08
2023-05-09T01:57:15.098Z,59.10
2023-05-09T01:59:46.061Z,60.92
2023-05-09T02:02:15.102Z,61.20
2023-05-09T02:04:44.156Z,59.10
2023-05-09T02:07:12.926Z,58.13
2023-05-09T02:09:40.885Z,59.85
2023-05-09T02:12:08.492Z,56.47
2023-05-09T02:14:36.207Z,52.75
2023-05-09T02:17:09.472Z,55.22
2023-05-09T02:19:37.037Z,56.10
2023-05-09T02:22:05.149Z,50.35
2023-05-09T02:24:36.660Z,50.13
2023-05-09T02:27:07.129Z,49.88
2023-05-09T02:29:40.693Z,50.75
2023-05-09T02:32:17.135Z,52.30
2023-05-09T02:34:48.843Z,49.45
2023-05-09T02:39:45.563Z,48.95
2023-05-09T02:42:19.104Z,45.22
2023-05-09T02:44:46.769Z,45.83
2023-05-09T02:47:16.629Z,49.90
2023-05-09T02:49:44.798Z,47.58
2023-05-09T02:52:13.225Z,53.88
2023-05-09T02:54:41.150Z,52.80
2023-05-09T02:57:08.684Z,54.45
2023-05-09T02:59:36.528Z,53.45
2023-05-09T03:02:04.163Z,51.80
2023-05-09T03:04:32.364Z,49.67
2023-05-09T03:07:00.414Z,53.65
2023-05-09T03:09:32.606Z,50.05
2023-05-09T03:12:01.057Z,48.53
2023-05-09T03:14:28.740Z,50.90
2023-05-09T03:16:56.271Z,45.28
2023-05-09T03:19:29.317Z,49.55
2023-05-09T03:21:56.878Z,47.75
2023-05-09T03:24:28.253Z,45.95
2023-05-09T03:26:55.925Z,48.42
2023-05-09T03:29:23.489Z,44.70
2023-05-09T03:31:51.131Z,48.90
2023-05-09T03:34:18.829Z,46.53
2023-05-09T03:36:46.554Z,46.08
2023-05-09T03:39:16.506Z,46.78
2023-05-09T03:44:14.675Z,52.75
2023-05-09T03:46:42.292Z,47.13
2023-05-09T03:49:10.434Z,46.42
2023-05-09T03:51:39.347Z,47.22
2023-05-09T03:54:12.724Z,45.47
2023-05-09T03:56:41.248Z,46.92
2023-05-09T03:59:09.619Z,43.92
2023-05-09T04:01:38.845Z,41.15
2023-05-09T04:04:07.887Z,43.60
2023-05-09T04:06:37.434Z,42.55
2023-05-09T04:09:07.391Z,41.58
2023-05-09T04:11:35.466Z,40.80
2023-05-09T04:14:07.018Z,43.05
2023-05-09T04:16:36.752Z,42.42
2023-05-09T04:19:04.513Z,43.75
2023-05-09T04:21:32.130Z,39.42
2023-05-09T04:24:01.989Z,40.20
2023-05-09T04:26:38.503Z,41.05
2023-05-09T04:29:08.951Z,40.38
2023-05-09T04:31:37.190Z,42.25
2023-05-09T04:34:06.545Z,39.90
2023-05-09T04:36:35.845Z,40.58
2023-05-09T04:39:05.228Z,41.42
2023-05-09T04:41:34.300Z,42.63
2023-05-09T04:44:02.226Z,41.08
2023-05-09T04:46:30.660Z,39.05
2023-05-09T04:48:58.611Z,45.15
2023-05-09T04:51:27.118Z,37.20
2023-05-09T04:53:54.685Z,43.17
2023-05-09T04:56:27.389Z,34.70
2023-05-09T04:58:55.613Z,37.65
2023-05-09T05:01:23.261Z,40.95
2023-05-09T05:03:51.469Z,39.55
2023-05-09T05:06:19.011Z,32.28
2023-05-09T05:08:46.656Z,33.00
2023-05-09T05:11:15.196Z,33.75
2023-05-09T05:13:42.932Z,32.53
2023-05-09T05:16:11.793Z,33.03
2023-05-09T05:18:39.393Z,36.88
2023-05-09T05:21:07.369Z,35.22
2023-05-09T05:23:35.543Z,30.42
2023-05-09T05:26:03.931Z,30.65
2023-05-09T05:28:33.312Z,30.17
2023-05-09T05:31:01.288Z,33.80
2023-05-09T05:33:28.956Z,33.53
2023-05-09T05:35:57.218Z,28.65
2023-05-09T05:38:24.879Z,28.95
2023-05-09T05:40:55.772Z,27.00
2023-05-09T05:43:25.208Z,28.15
2023-05-09T05:45:53.469Z,25.38
2023-05-09T05:48:23.730Z,23.83
2023-05-09T05:50:52.275Z,26.20
2023-05-09T05:53:23.682Z,24.67
2023-05-09T05:55:52.146Z,23.58
2023-05-09T05:58:19.775Z,25.20
2023-05-09T06:00:47.525Z,25.02
2023-05-09T06:03:16.137Z,24.02
2023-05-09T06:06:10.621Z,24.13
2023-05-09T06:08:38.184Z,24.95
2023-05-09T06:11:06.170Z,26.33
2023-05-09T06:13:34.115Z,24.75
2023-05-09T06:16:18.471Z,25.65
2023-05-09T06:18:49.371Z,26.92
2023-05-09T06:21:16.929Z,25.77
2023-05-09T06:23:57.795Z,24.02
2023-05-09T06:26:33.403Z,23.45
2023-05-09T06:29:00.966Z,22.73
2023-05-09T06:31:28.724Z,27.08
2023-05-09T06:33:56.317Z,25.40
2023-05-09T06:36:23.851Z,31.30
2023-05-09T06:38:51.490Z,24.42
2023-05-09T06:41:19.015Z,26.02
2023-05-09T06:43:46.650Z,24.77
2023-05-09T06:46:14.290Z,24.23
2023-05-09T06:48:41.924Z,28.67
2023-05-09T06:51:09.608Z,28.38
2023-05-09T06:53:37.963Z,25.08
2023-05-09T06:56:06.407Z,22.60
2023-05-09T06:58:34.010Z,25.40
2023-05-09T07:01:01.782Z,23.83
2023-05-09T07:03:29.428Z,22.65
2023-05-09T07:05:58.908Z,21.15
2023-05-09T07:08:26.970Z,22.52
2023-05-09T07:10:54.636Z,22.65
2023-05-09T07:13:22.185Z,22.88
2023-05-09T07:15:49.761Z,22.55
2023-05-09T07:18:17.344Z,21.27
2023-05-09T07:20:44.875Z,24.60
2023-05-09T07:23:12.411Z,21.25
2023-05-09T07:25:40.037Z,22.65
2023-05-09T07:28:07.859Z,20.42
2023-05-09T07:30:35.476Z,19.92
2023-05-09T07:33:03.704Z,19.77
2023-05-09T07:35:31.532Z,20.88
2023-05-09T07:37:59.111Z,20.92
2023-05-09T07:40:26.754Z,20.80
2023-05-09T07:42:56.733Z,21.50
2023-05-09T07:45:24.361Z,21.58
2023-05-09T07:47:52.049Z,22.13
2023-05-09T07:50:19.664Z,19.38
2023-05-09T07:52:47.222Z,19.63
2023-05-09T07:55:15.206Z,20.88
2023-05-09T07:57:42.986Z,21.15
2023-05-09T08:00:11.522Z,20.30
2023-05-09T08:02:42.577Z,18.60
2023-05-09T08:05:13.887Z,19.58
2023-05-09T08:10:09.886Z,19.02
2023-05-09T08:12:37.490Z,17.02
2023-05-09T08:15:06.180Z,16.27
2023-05-09T08:17:33.843Z,18.83
2023-05-09T08:20:01.578Z,17.88
2023-05-09T08:22:29.137Z,20.08
2023-05-09T08:24:56.672Z,16.10
2023-05-09T08:27:24.693Z,14.30
2023-05-09T08:29:52.200Z,16.30
2023-05-09T08:32:20.145Z,15.55
2023-05-09T08:34:47.811Z,16.17
2023-05-09T08:37:15.696Z,14.02
2023-05-09T08:39:43.357Z,15.27
2023-05-09T08:42:11.266Z,13.90
2023-05-09T08:44:38.833Z,14.80
2023-05-09T08:47:07.821Z,12.30
2023-05-09T08:49:35.654Z,12.27
2023-05-09T08:52:04.570Z,13.52
2023-05-09T08:54:32.415Z,14.93
2023-05-09T08:57:01.408Z,13.57
2023-05-09T08:59:31.002Z,11.95
2023-05-09T09:02:05.838Z,11.15
2023-05-09T09:04:33.505Z,11.98
2023-05-09T09:07:04.296Z,13.25
2023-05-09T09:09:36.072Z,14.97
2023-05-09T09:12:09.747Z,9.88
2023-05-09T09:14:40.423Z,9.27
2023-05-09T09:17:12.082Z,11.50
2023-05-09T09:19:43.185Z,8.98
2023-05-09T09:22:16.464Z,7.68
2023-05-09T09:24:44.405Z,10.38
2023-05-09T09:27:11.964Z,7.80
2023-05-09T09:29:39.543Z,9.60
2023-05-09T09:32:09.202Z,7.55
2023-05-09T09:34:36.807Z,8.40
2023-05-09T09:37:07.330Z,9.45
2023-05-09T09:39:35.000Z,8.80
2023-05-09T09:42:12.795Z,8.65
2023-05-09T09:44:40.552Z,9.02
2023-05-09T09:47:10.826Z,7.97
2023-05-09T09:49:47.632Z,7.07
2023-05-09T09:52:25.132Z,7.90
2023-05-09T09:54:56.630Z,9.73
2023-05-09T10:00:07.798Z,9.02
2023-05-09T10:02:35.405Z,7.78
2023-05-09T10:05:08.084Z,9.45
2023-05-09T10:07:36.157Z,8.27
2023-05-09T10:10:06.121Z,7.18
2023-05-09T10:12:36.434Z,6.82
2023-05-09T10:15:09.107Z,8.02
2023-05-09T10:17:36.997Z,8.00
2023-05-09T10:20:06.438Z,10.50
2023-05-09T10:22:36.428Z,8.25
2023-05-09T10:25:13.027Z,8.07
2023-05-09T10:27:45.978Z,7.30
2023-05-09T10:30:21.471Z,7.28
2023-05-09T10:32:53.824Z,6.72
2023-05-09T10:35:32.986Z,7.40
2023-05-09T10:38:02.280Z,6.68
2023-05-09T10:40:32.376Z,8.18
2023-05-09T10:43:00.234Z,7.97
2023-05-09T10:45:28.127Z,7.07
2023-05-09T10:47:57.165Z,6.80
2023-05-09T10:50:26.088Z,7.63
2023-05-09T10:53:08.495Z,4.68
2023-05-09T10:56:01.977Z,5.90
2023-05-09T10:58:37.446Z,7.40
2023-05-09T11:01:05.371Z,6.43
2023-05-09T11:03:58.826Z,5.25
2023-05-09T11:06:43.763Z,6.70
2023-05-09T11:09:37.845Z,5.05
2023-05-09T11:12:05.428Z,5.13
2023-05-09T11:14:46.379Z,5.90
2023-05-09T11:17:38.463Z,4.83
2023-05-09T11:20:08.759Z,6.22
2023-05-09T11:22:42.041Z,7.30
2023-05-09T11:25:15.423Z,4.88
2023-05-09T11:27:46.896Z,6.88
2023-05-09T11:30:18.494Z,6.15
2023-05-09T11:35:29.065Z,8.02
2023-05-09T11:38:01.349Z,5.68
2023-05-09T11:40:30.431Z,5.85
2023-05-09T11:42:59.509Z,6.55
2023-05-09T11:45:30.850Z,4.88
2023-05-09T11:48:00.569Z,4.78
2023-05-09T11:50:28.693Z,5.32
2023-05-09T11:52:56.254Z,5.68
2023-05-09T11:55:25.342Z,6.53
2023-05-09T11:57:54.709Z,7.38
2023-05-09T12:00:25.692Z,7.57
2023-05-09T12:02:54.031Z,6.40
2023-05-09T12:05:23.752Z,4.93
2023-05-09T12:07:52.337Z,6.50
2023-05-09T12:10:22.993Z,5.53
2023-05-09T12:12:55.307Z,5.80
2023-05-09T12:15:23.805Z,5.50
2023-05-09T12:18:05.819Z,6.35
2023-05-09T12:20:50.120Z,7.88
2023-05-09T12:23:18.860Z,7.85
2023-05-09T12:25:57.572Z,6.10
2023-05-09T12:28:27.001Z,7.05
2023-05-09T12:30:55.232Z,7.68
2023-05-09T12:33:23.844Z,6.43
2023-05-09T12:36:12.511Z,7.95
2023-05-09T12:38:40.169Z,5.57
2023-05-09T12:41:18.827Z,5.95
2023-05-09T12:43:57.785Z,6.38
2023-05-09T12:46:25.790Z,5.72
2023-05-09T12:48:54.029Z,6.25
2023-05-09T12:51:23.107Z,6.72
2023-05-09T12:53:51.181Z,5.38
2023-05-09T12:56:20.864Z,5.43
2023-05-09T12:58:54.082Z,5.50
2023-05-09T13:01:28.234Z,5.93
2023-05-09T13:04:07.600Z,5.72
2023-05-09T13:06:36.247Z,6.53
2023-05-09T13:09:06.408Z,4.65
2023-05-09T13:11:35.321Z,4.72
2023-05-09T13:14:04.107Z,8.18
2023-05-09T13:16:31.834Z,4.65
2023-05-09T13:19:01.525Z,4.20
2023-05-09T13:21:29.104Z,5.90
2023-05-09T13:23:56.835Z,4.85
2023-05-09T13:26:24.596Z,6.13
2023-05-09T13:28:52.143Z,5.13
2023-05-09T13:31:20.048Z,4.00
2023-05-09T13:33:49.304Z,5.57
2023-05-09T13:36:19.526Z,3.90
2023-05-09T13:38:48.279Z,4.93
2023-05-09T13:41:20.227Z,3.63
2023-05-09T13:43:48.413Z,5.15
2023-05-09T13:46:16.144Z,4.60
2023-05-09T13:48:44.473Z,4.50
2023-05-09T13:51:12.172Z,13.13
2023-05-09T13:53:39.868Z,4.78
2023-05-09T13:56:09.475Z,6.43
2023-05-09T13:58:37.169Z,4.40
2023-05-09T14:01:04.831Z,4.20
2023-05-09T14:03:32.462Z,5.30
2023-05-09T14:06:00.046Z,4.20
2023-05-09T14:08:27.675Z,4.90
2023-05-09T14:10:55.321Z,4.80
2023-05-09T14:13:23.189Z,5.78
2023-05-09T14:15:51.030Z,4.78
2023-05-09T14:18:20.781Z,5.68
2023-05-09T14:20:48.713Z,5.35
2023-05-09T14:23:16.454Z,7.10
2023-05-09T14:25:44.775Z,5.47
2023-05-09T14:28:12.903Z,5.50
2023-05-09T14:30:43.641Z,5.05
2023-05-09T14:33:11.329Z,5.50
2023-05-09T14:35:41.212Z,4.97
2023-05-09T14:38:09.257Z,5.82
2023-05-09T14:40:37.063Z,5.65
2023-05-09T14:43:05.848Z,7.50
2023-05-09T14:45:33.695Z,5.03
2023-05-09T14:48:03.242Z,6.05
2023-05-09T14:50:31.512Z,5.97
2023-05-09T14:53:00.927Z,5.35
2023-05-09T14:55:28.555Z,5.20
2023-05-09T14:57:56.196Z,5.18
2023-05-09T15:00:25.772Z,5.60
2023-05-09T15:02:56.808Z,5.10
2023-05-09T15:05:24.524Z,6.68
2023-05-09T15:07:52.135Z,6.13
2023-05-09T15:10:20.008Z,6.10
2023-05-09T15:12:47.645Z,5.30
2023-05-09T15:15:21.393Z,5.82
2023-05-09T15:17:49.630Z,5.18
2023-05-09T15:20:18.253Z,5.50
2023-05-09T15:22:48.104Z,5.10
2023-05-09T15:25:17.356Z,6.15
2023-05-09T15:27:50.322Z,5.40
2023-05-09T15:30:18.252Z,5.90
2023-05-09T15:32:46.859Z,5.40
2023-05-09T15:35:15.810Z,4.85
2023-05-09T15:37:43.350Z,6.25
2023-05-09T15:40:11.536Z,5.72
2023-05-09T15:42:39.644Z,7.05
2023-05-09T15:45:15.629Z,5.65
2023-05-09T15:47:43.236Z,5.72
2023-05-09T15:50:11.951Z,6.05
2023-05-09T15:52:39.481Z,5.68
2023-05-09T15:55:08.498Z,6.18
2023-05-09T15:57:36.096Z,5.90
2023-05-09T16:00:05.552Z,5.45
2023-05-09T16:02:42.122Z,6.38
2023-05-09T16:05:10.201Z,6.10
2023-05-09T16:07:37.952Z,5.28
2023-05-09T16:10:08.008Z,5.97
2023-05-09T16:12:38.815Z,5.70
2023-05-09T16:15:07.258Z,5.63
2023-05-09T16:17:34.975Z,6.80
2023-05-09T16:20:02.681Z,6.80
2023-05-09T16:22:30.394Z,5.43
2023-05-09T16:25:01.353Z,6.47
2023-05-09T16:27:29.104Z,6.35
2023-05-09T16:29:59.412Z,5.25
2023-05-09T16:32:27.191Z,4.55
2023-05-09T16:34:54.791Z,5.20
2023-05-09T16:37:22.435Z,5.68
2023-05-09T16:39:50.017Z,5.38
2023-05-09T16:42:17.657Z,5.57
2023-05-09T16:44:45.343Z,5.72
2023-05-09T16:47:12.908Z,5.50
2023-05-09T16:49:41.089Z,5.35
2023-05-09T16:52:08.727Z,5.00
2023-05-09T16:54:36.242Z,5.03
2023-05-09T16:57:03.807Z,5.32
2023-05-09T16:59:32.768Z,5.97
2023-05-09T17:02:04.493Z,5.60
2023-05-09T17:04:32.317Z,5.50
2023-05-09T17:06:59.845Z,6.00
2023-05-09T17:09:27.411Z,5.72
2023-05-09T17:11:56.993Z,5.00
2023-05-09T17:14:24.869Z,4.22
2023-05-09T17:16:52.994Z,4.65
2023-05-09T17:19:23.396Z,4.28
2023-05-09T17:21:51.028Z,4.70
2023-05-09T17:24:18.530Z,4.40
2023-05-09T17:26:46.240Z,4.63
2023-05-09T17:29:13.764Z,4.45
2023-05-09T17:31:41.329Z,3.95
2023-05-09T17:34:08.946Z,5.28
2023-05-09T17:36:36.672Z,5.13
2023-05-09T17:39:04.753Z,3.22
2023-05-09T17:41:32.275Z,4.80
2023-05-09T17:43:59.840Z,4.00
2023-05-09T17:46:27.485Z,6.43
2023-05-09T17:48:55.267Z,4.47
2023-05-09T17:51:32.696Z,4.28
2023-05-09T17:54:01.286Z,4.78
2023-05-09T17:56:28.918Z,5.43
2023-05-09T17:58:57.045Z,4.93
2023-05-09T18:01:24.670Z,4.30
2023-05-09T18:03:52.700Z,4.00
2023-05-09T18:06:20.417Z,4.22
2023-05-09T18:08:48.302Z,4.25
2023-05-09T18:11:16.304Z,5.57
2023-05-09T18:13:43.881Z,5.05
2023-05-09T18:16:12.244Z,4.60
2023-05-09T18:18:42.038Z,5.75
2023-05-09T18:21:09.724Z,4.88
2023-05-09T18:23:37.688Z,5.07
2023-05-09T18:26:05.263Z,5.70
2023-05-09T18:28:39.054Z,5.43
2023-05-09T18:31:13.006Z,5.78
2023-05-09T18:33:40.816Z,6.32
2023-05-09T18:36:10.984Z,6.32
2023-05-09T18:38:39.404Z,8.05
2023-05-09T18:41:12.124Z,6.93
2023-05-09T18:43:45.845Z,5.57
2023-05-09T18:46:19.916Z,7.53
2023-05-09T18:48:51.556Z,5.80
2023-05-09T18:53:47.623Z,7.13
2023-05-09T18:56:18.279Z,7.63
2023-05-09T18:58:46.485Z,7.38
2023-05-09T19:01:14.271Z,8.50
2023-05-09T19:03:45.883Z,6.70
2023-05-09T19:06:14.914Z,6.43
2023-05-09T19:08:43.732Z,6.18
2023-05-09T19:11:11.751Z,8.02
2023-05-09T19:13:40.848Z,6.32
2023-05-09T19:16:08.876Z,6.38
2023-05-09T19:18:36.518Z,6.05
2023-05-09T19:21:04.289Z,5.80
2023-05-09T19:23:32.190Z,7.18
2023-05-09T19:26:12.612Z,6.50
2023-05-09T19:28:40.261Z,6.65
2023-05-09T19:31:09.098Z,6.70
2023-05-09T19:33:36.760Z,7.18
2023-05-09T19:36:04.827Z,7.05
2023-05-09T19:38:32.580Z,7.25
2023-05-09T19:41:00.162Z,7.50
2023-05-09T19:43:27.838Z,8.43
2023-05-09T19:45:55.467Z,7.60
2023-05-09T19:48:23.074Z,7.57
2023-05-09T19:50:58.505Z,8.00
2023-05-09T19:53:36.262Z,8.23
2023-05-09T19:56:27.324Z,8.18
2023-05-09T19:58:54.915Z,8.77
2023-05-09T20:01:22.850Z,9.77
2023-05-09T20:03:52.453Z,11.52
2023-05-09T20:06:20.190Z,10.63
2023-05-09T20:08:52.080Z,9.70
2023-05-09T20:11:19.623Z,9.45
2023-05-09T20:13:47.254Z,9.85
2023-05-09T20:16:15.189Z,10.75
2023-05-09T20:18:44.166Z,12.18
2023-05-09T20:21:14.914Z,12.07
2023-05-09T20:23:42.421Z,12.90
2023-05-09T20:26:10.054Z,13.35
2023-05-09T20:28:38.154Z,15.40
2023-05-09T20:31:06.270Z,14.10
2023-05-09T20:33:33.884Z,13.50
2023-05-09T20:36:01.688Z,14.38
2023-05-09T20:38:29.715Z,13.55
2023-05-09T20:40:57.265Z,14.73
2023-05-09T20:43:24.898Z,15.07
2023-05-09T20:45:56.221Z,12.85
2023-05-09T20:48:30.767Z,14.48
2023-05-09T20:50:59.356Z,14.85
2023-05-09T20:53:31.301Z,14.13
2023-05-09T20:56:02.126Z,14.77
2023-05-09T20:58:33.172Z,14.80
2023-05-09T21:01:01.171Z,15.48
2023-05-09T21:03:31.617Z,15.65
2023-05-09T21:06:00.687Z,15.25
2023-05-09T21:08:28.225Z,15.43
2023-05-09T21:11:01.258Z,16.25
2023-05-09T21:13:30.300Z,15.70
2023-05-09T21:15:57.922Z,15.05
2023-05-09T21:18:25.490Z,16.25
2023-05-09T21:20:53.434Z,19.55
2023-05-09T21:23:21.719Z,17.20
2023-05-09T21:25:52.244Z,16.08
2023-05-09T21:28:20.697Z,16.05
2023-05-09T21:30:55.193Z,17.60
2023-05-09T21:33:23.128Z,16.02
2023-05-09T21:35:50.713Z,17.42
2023-05-09T21:38:20.831Z,16.15
2023-05-09T21:40:51.417Z,18.08
2023-05-09T21:43:19.831Z,17.55
2023-05-09T21:45:47.469Z,17.38
2023-05-09T21:48:15.395Z,17.98
2023-05-09T21:50:48.616Z,17.20
2023-05-09T21:53:16.154Z,16.75
2023-05-09T21:56:29.828Z,16.88
2023-05-09T21:59:21.211Z,17.73
2023-05-09T22:02:04.568Z,17.60
2023-05-09T22:04:32.090Z,19.02
2023-05-09T22:06:59.617Z,17.80
2023-05-09T22:09:27.159Z,18.88
2023-05-09T22:11:57.547Z,19.08
2023-05-09T22:14:25.204Z,20.52
2023-05-09T22:16:52.704Z,19.77
2023-05-09T22:19:20.274Z,18.98
2023-05-09T22:21:48.865Z,21.77
2023-05-09T22:24:16.426Z,21.70
2023-05-09T22:26:43.939Z,21.23
2023-05-09T22:29:11.532Z,19.80
2023-05-09T22:31:39.289Z,20.25
2023-05-09T22:34:06.823Z,22.10
2023-05-09T22:36:34.344Z,21.20
2023-05-09T22:39:01.857Z,24.50
2023-05-09T22:41:29.423Z,19.92
2023-05-09T22:43:57.361Z,21.38
2023-05-09T22:46:24.897Z,22.08
2023-05-09T22:48:52.523Z,20.13
2023-05-09T22:51:20.077Z,23.67
2023-05-09T22:53:47.634Z,24.40
2023-05-09T22:56:15.216Z,21.45
2023-05-09T22:58:42.778Z,24.52
2023-05-09T23:01:10.422Z,23.83
2023-05-09T23:03:38.097Z,23.85
2023-05-09T23:06:06.832Z,24.60
2023-05-09T23:08:34.916Z,25.05
2023-05-09T23:11:02.535Z,22.55
2023-05-09T23:13:30.129Z,22.45
2023-05-09T23:15:57.790Z,22.85
2023-05-09T23:18:27.267Z,20.73
2023-05-09T23:20:54.804Z,22.38
2023-05-09T23:23:22.423Z,22.42
2023-05-09T23:25:50.015Z,21.15
2023-05-09T23:28:20.074Z,22.42
2023-05-09T23:30:47.581Z,21.90
2023-05-09T23:33:16.139Z,25.58
2023-05-09T23:35:43.761Z,24.30
2023-05-09T23:38:11.635Z,22.27
2023-05-09T23:40:39.726Z,22.17
2023-05-09T23:43:07.310Z,21.65
2023-05-09T23:45:34.843Z,21.73
2023-05-09T23:48:02.873Z,23.02
2023-05-09T23:50:30.621Z,24.45
2023-05-09T23:52:58.135Z,22.25
2023-05-09T23:55:25.843Z,21.42
2023-05-09T23:57:53.465Z,20.05
